createdAt,value
2018-08-20T00:57:23.758Z,99.90
2018-08-20T00:59:52.161Z,99.90
2018-08-20T01:02:26.760Z,99.90
2018-08-20T01:04:55.169Z,99.90
2018-08-20T01:07:23.544Z,99.90
2018-08-20T01:09:53.038Z,99.90
2018-08-20T01:12:21.422Z,99.90
2018-08-20T01:14:51.317Z,99.90
2018-08-20T01:17:20.325Z,99.90
2018-08-20T01:19:49.052Z,99.90
2018-08-20T01:22:18.072Z,99.90
2018-08-20T01:24:47.222Z,99.90
2018-08-20T01:27:32.092Z,99.90
2018-08-20T01:30:01.849Z,99.90
2018-08-20T01:32:30.464Z,99.90
2018-08-20T01:35:14.891Z,99.90
2018-08-20T01:37:43.692Z,99.90
2018-08-20T01:40:12.203Z,99.90
2018-08-20T01:42:40.644Z,99.90
2018-08-20T01:45:09.080Z,99.90
2018-08-20T01:47:37.675Z,99.90
2018-08-20T01:50:06.185Z,99.90
2018-08-20T01:52:34.635Z,99.90
2018-08-20T01:55:03.026Z,99.90
2018-08-20T01:57:32.031Z,99.90
2018-08-20T02:00:00.573Z,99.90
2018-08-20T02:02:29.161Z,99.90
2018-08-20T02:04:58.088Z,99.90
2018-08-20T02:07:26.755Z,99.90
2018-08-20T02:09:55.166Z,99.90
2018-08-20T02:12:23.678Z,99.90
2018-08-20T02:14:52.066Z,99.90
2018-08-20T02:17:20.631Z,99.90
2018-08-20T02:19:49.432Z,99.90
2018-08-20T02:22:18.165Z,99.90
2018-08-20T02:24:46.975Z,99.90
2018-08-20T02:27:15.861Z,99.90
2018-08-20T02:29:44.284Z,99.90
2018-08-20T02:32:12.677Z,99.90
2018-08-20T02:34:41.064Z,99.90
2018-08-20T02:37:09.519Z,99.90
2018-08-20T02:39:37.921Z,99.90
2018-08-20T02:42:06.950Z,99.90
2018-08-20T02:44:35.391Z,99.90
2018-08-20T02:47:05.520Z,99.90
2018-08-20T02:49:34.676Z,99.90
2018-08-20T02:52:03.100Z,99.90
2018-08-20T02:54:31.577Z,99.90
2018-08-20T02:57:00.257Z,99.90
2018-08-20T02:59:29.554Z,99.90
2018-08-20T03:01:58.165Z,99.90
2018-08-20T03:04:26.586Z,99.90
2018-08-20T03:06:55.445Z,99.90
2018-08-20T03:09:24.398Z,99.90
2018-08-20T03:11:52.822Z,99.90
2018-08-20T03:14:21.230Z,99.90
2018-08-20T03:16:50.231Z,99.90
2018-08-20T03:19:19.011Z,99.90
2018-08-20T03:21:47.406Z,99.90
2018-08-20T03:24:15.825Z,99.90
2018-08-20T03:26:44.378Z,99.90
2018-08-20T03:29:12.894Z,99.90
2018-08-20T03:31:41.337Z,99.90
2018-08-20T03:34:09.760Z,99.90
2018-08-20T03:36:38.807Z,99.90
2018-08-20T03:39:08.350Z,99.90
2018-08-20T03:41:36.989Z,99.90
2018-08-20T03:44:05.707Z,99.90
2018-08-20T03:46:34.288Z,99.90
2018-08-20T03:49:03.291Z,99.90
2018-08-20T03:51:31.696Z,99.90
2018-08-20T03:54:00.403Z,99.90
2018-08-20T03:56:28.833Z,99.90
2018-08-20T03:58:57.305Z,99.90
2018-08-20T04:01:26.846Z,99.90
2018-08-20T04:03:55.602Z,99.90
2018-08-20T04:06:24.240Z,99.90
2018-08-20T04:08:53.200Z,99.90
2018-08-20T04:11:21.651Z,99.90
2018-08-20T04:13:50.275Z,99.90
2018-08-20T04:16:18.665Z,99.90
2018-08-20T04:18:47.211Z,99.90
2018-08-20T04:21:16.101Z,99.90
2018-08-20T04:23:45.236Z,99.90
2018-08-20T04:26:14.105Z,99.90
2018-08-20T04:28:42.496Z,99.90
2018-08-20T04:31:11.687Z,99.90
2018-08-20T04:33:40.225Z,99.90
2018-08-20T04:36:08.686Z,99.90
2018-08-20T04:38:37.379Z,99.90
2018-08-20T04:41:05.970Z,99.90
2018-08-20T04:43:34.658Z,99.90
2018-08-20T04:46:03.143Z,99.90
2018-08-20T04:48:31.610Z,99.90
2018-08-20T04:51:00.160Z,99.90
2018-08-20T04:53:29.069Z,99.90
2018-08-20T04:55:57.675Z,99.90
2018-08-20T04:58:26.368Z,99.90
2018-08-20T05:00:54.780Z,99.90
2018-08-20T05:03:23.471Z,99.90
2018-08-20T05:05:52.705Z,99.90
2018-08-20T05:08:21.460Z,99.90
2018-08-20T05:10:49.919Z,99.90
2018-08-20T05:13:18.339Z,99.90
2018-08-20T05:15:47.090Z,99.90
2018-08-20T05:18:15.830Z,99.90
2018-08-20T05:20:44.849Z,99.90
2018-08-20T05:23:13.254Z,99.90
2018-08-20T05:25:41.668Z,99.90
2018-08-20T05:28:10.470Z,99.90
2018-08-20T05:30:38.894Z,99.90
2018-08-20T05:33:07.537Z,99.90
2018-08-20T05:35:36.168Z,99.90
2018-08-20T05:38:04.855Z,99.90
2018-08-20T05:40:33.286Z,99.90
2018-08-20T05:43:01.797Z,99.90
2018-08-20T05:45:30.572Z,99.90
2018-08-20T05:48:00.045Z,99.90
2018-08-20T05:50:28.455Z,99.90
2018-08-20T05:52:56.996Z,99.90
2018-08-20T05:55:25.645Z,99.90
2018-08-20T05:57:54.561Z,99.90
2018-08-20T06:00:23.149Z,99.90
2018-08-20T06:02:51.593Z,99.90
2018-08-20T06:05:20.194Z,99.90
2018-08-20T06:07:49.625Z,99.90
2018-08-20T06:10:18.093Z,99.90
2018-08-20T06:12:46.903Z,99.90
2018-08-20T06:15:15.442Z,99.90
2018-08-20T06:17:44.005Z,99.90
2018-08-20T06:20:16.171Z,99.90
2018-08-20T06:22:45.314Z,99.90
2018-08-20T06:25:14.504Z,99.90
2018-08-20T06:27:43.369Z,99.90
2018-08-20T06:30:17.176Z,99.90
2018-08-20T06:32:46.763Z,99.90
2018-08-20T06:35:15.208Z,99.90
2018-08-20T06:37:43.608Z,99.90
2018-08-20T06:40:13.733Z,99.90
2018-08-20T06:42:42.297Z,99.90
2018-08-20T06:45:16.182Z,99.90
2018-08-20T06:47:46.177Z,99.90
2018-08-20T06:50:16.209Z,98.80
2018-08-20T06:52:45.685Z,98.00
2018-08-20T06:55:15.414Z,97.20
2018-08-20T06:57:45.090Z,96.80
2018-08-20T07:00:14.918Z,94.70
2018-08-20T07:02:43.423Z,93.20
2018-08-20T07:05:12.006Z,92.50
2018-08-20T07:07:40.966Z,90.30
2018-08-20T07:10:12.316Z,86.40
2018-08-20T07:12:41.400Z,86.80
2018-08-20T07:15:11.788Z,84.90
2018-08-20T07:17:41.618Z,83.00
2018-08-20T07:20:11.941Z,77.50
2018-08-20T07:22:40.449Z,76.60
2018-08-20T07:25:09.576Z,72.10
2018-08-20T07:27:38.581Z,71.40
2018-08-20T07:30:09.256Z,68.30
2018-08-20T07:32:38.189Z,67.10
2018-08-20T07:35:07.231Z,68.40
2018-08-20T07:37:35.785Z,62.20
2018-08-20T07:40:05.711Z,60.60
2018-08-20T07:42:34.335Z,60.50
2018-08-20T07:45:02.916Z,57.70
2018-08-20T07:47:32.197Z,57.50
2018-08-20T07:50:00.796Z,53.40
2018-08-20T07:52:29.397Z,52.90
2018-08-20T07:54:58.867Z,54.10
2018-08-20T07:57:27.277Z,54.60
2018-08-20T07:59:56.532Z,51.10
2018-08-20T08:02:24.938Z,54.30
2018-08-20T08:04:53.530Z,52.40
2018-08-20T08:07:22.112Z,54.40
2018-08-20T08:09:50.480Z,50.40
2018-08-20T08:12:19.338Z,53.20
2018-08-20T08:14:47.994Z,48.10
2018-08-20T08:17:16.636Z,54.40
2018-08-20T08:19:45.864Z,49.40
2018-08-20T08:22:14.255Z,49.30
2018-08-20T08:24:43.313Z,49.90
2018-08-20T08:27:11.936Z,52.10
2018-08-20T08:29:40.460Z,43.80
2018-08-20T08:32:08.939Z,47.60
2018-08-20T08:34:37.753Z,44.00
2018-08-20T08:37:06.714Z,45.70
2018-08-20T08:39:35.463Z,47.40
2018-08-20T08:42:04.689Z,45.20
2018-08-20T08:44:33.175Z,47.70
2018-08-20T08:47:02.008Z,47.50
2018-08-20T08:49:30.444Z,44.50
2018-08-20T08:51:59.385Z,44.80
2018-08-20T08:54:27.992Z,43.80
2018-08-20T08:56:56.478Z,44.40
2018-08-20T08:59:25.111Z,44.80
2018-08-20T09:01:54.304Z,42.40
2018-08-20T09:04:22.905Z,40.60
2018-08-20T09:06:51.401Z,44.80
2018-08-20T09:09:22.189Z,44.40
2018-08-20T09:11:50.614Z,41.20
2018-08-20T09:14:19.837Z,41.50
2018-08-20T09:16:48.494Z,45.70
2018-08-20T09:19:17.219Z,41.20
2018-08-20T09:21:46.104Z,40.70
2018-08-20T09:24:14.751Z,44.90
2018-08-20T09:26:43.196Z,43.20
2018-08-20T09:29:12.186Z,43.50
2018-08-20T09:31:40.686Z,40.50
2018-08-20T09:34:09.116Z,40.30
2018-08-20T09:36:39.043Z,41.40
2018-08-20T09:39:08.076Z,40.60
2018-08-20T09:41:36.577Z,37.60
2018-08-20T09:44:05.302Z,39.60
2018-08-20T09:46:33.962Z,37.70
2018-08-20T09:49:02.941Z,40.00
2018-08-20T09:51:32.595Z,34.90
2018-08-20T09:54:01.133Z,38.80
2018-08-20T09:56:30.595Z,36.60
2018-08-20T09:58:59.516Z,34.50
2018-08-20T10:01:28.868Z,38.40
2018-08-20T10:03:57.400Z,36.40
2018-08-20T10:06:28.079Z,37.20
2018-08-20T10:08:56.533Z,36.20
2018-08-20T10:11:25.085Z,38.40
2018-08-20T10:13:54.281Z,37.90
2018-08-20T10:16:23.112Z,36.70
2018-08-20T10:18:52.234Z,36.10
2018-08-20T10:21:20.629Z,35.00
2018-08-20T10:23:49.367Z,37.10
2018-08-20T10:26:17.785Z,33.50
2018-08-20T10:28:46.789Z,35.30
2018-08-20T10:31:15.337Z,33.90
2018-08-20T10:33:43.891Z,39.30
2018-08-20T10:36:12.467Z,39.60
2018-08-20T10:38:40.880Z,40.50
2018-08-20T10:41:10.416Z,39.60
2018-08-20T10:43:39.079Z,36.30
2018-08-20T10:46:13.515Z,41.10
2018-08-20T10:48:42.127Z,41.00
2018-08-20T10:51:10.605Z,41.60
2018-08-20T10:53:39.609Z,42.60
2018-08-20T10:56:08.504Z,45.30
2018-08-20T10:58:37.137Z,44.70
2018-08-20T11:01:06.304Z,44.30
2018-08-20T11:03:34.869Z,44.80
2018-08-20T11:06:03.456Z,43.20
2018-08-20T11:08:31.881Z,43.10
2018-08-20T11:11:00.930Z,38.70
2018-08-20T11:13:29.305Z,42.30
2018-08-20T11:15:58.320Z,41.40
2018-08-20T11:18:28.415Z,43.80
2018-08-20T11:20:56.795Z,45.20
2018-08-20T11:23:25.213Z,46.20
2018-08-20T11:25:54.222Z,46.10
2018-08-20T11:28:22.954Z,44.80
2018-08-20T11:30:52.399Z,46.40
2018-08-20T11:33:20.997Z,46.00
2018-08-20T11:35:49.683Z,45.80
2018-08-20T11:38:18.165Z,48.30
2018-08-20T11:40:46.879Z,45.50
2018-08-20T11:43:15.540Z,43.80
2018-08-20T11:45:44.208Z,48.40
2018-08-20T11:48:12.577Z,46.70
2018-08-20T11:50:41.337Z,45.20
2018-08-20T11:53:10.483Z,46.30
2018-08-20T11:55:39.595Z,45.30
2018-08-20T11:58:08.635Z,45.00
2018-08-20T12:00:37.097Z,45.50
2018-08-20T12:03:06.929Z,47.40
2018-08-20T12:05:35.543Z,47.40
2018-08-20T12:08:04.034Z,46.80
2018-08-20T12:10:32.646Z,47.10
2018-08-20T12:13:01.185Z,46.20
2018-08-20T12:15:30.304Z,47.50
2018-08-20T12:17:58.844Z,47.70
2018-08-20T12:20:27.688Z,45.60
2018-08-20T12:22:56.413Z,45.70
2018-08-20T12:25:25.901Z,48.40
2018-08-20T12:27:55.498Z,47.60
2018-08-20T12:30:24.232Z,46.10
2018-08-20T12:32:52.856Z,46.30
2018-08-20T12:35:22.651Z,46.60
2018-08-20T12:37:51.353Z,46.10
2018-08-20T12:40:19.886Z,47.70
2018-08-20T12:42:48.579Z,47.60
2018-08-20T12:45:17.045Z,47.40
2018-08-20T12:47:45.920Z,47.60
2018-08-20T12:50:14.506Z,47.40
2018-08-20T12:52:42.864Z,46.00
2018-08-20T12:55:11.369Z,45.50
2018-08-20T12:57:42.707Z,47.10
2018-08-20T13:00:11.258Z,45.90
2018-08-20T13:02:39.708Z,49.20
2018-08-20T13:05:10.150Z,48.80
2018-08-20T13:07:38.673Z,47.30
2018-08-20T13:10:07.443Z,46.60
2018-08-20T13:12:36.116Z,46.80
2018-08-20T13:15:04.944Z,46.50
2018-08-20T13:17:33.660Z,46.40
2018-08-20T13:20:02.127Z,47.00
2018-08-20T13:22:30.520Z,47.50
2018-08-20T13:24:59.621Z,48.00
2018-08-20T13:27:28.261Z,47.10
2018-08-20T13:29:56.827Z,47.70
2018-08-20T13:32:25.459Z,47.30
2018-08-20T13:34:54.024Z,49.00
2018-08-20T13:37:22.628Z,46.30
2018-08-20T13:39:51.676Z,47.00
2018-08-20T13:42:20.192Z,46.00
2018-08-20T13:44:48.611Z,46.20
2018-08-20T13:47:17.298Z,46.50
2018-08-20T13:49:46.459Z,45.70
2018-08-20T13:52:14.925Z,45.70
2018-08-20T13:54:43.528Z,45.40
2018-08-20T13:57:12.114Z,45.50
2018-08-20T13:59:40.973Z,46.60
2018-08-20T14:02:09.572Z,45.90
2018-08-20T14:04:38.702Z,47.30
2018-08-20T14:07:07.430Z,47.30
2018-08-20T14:09:36.107Z,47.00
2018-08-20T14:12:04.928Z,46.80
2018-08-20T14:14:33.832Z,45.20
2018-08-20T14:17:02.879Z,47.20
2018-08-20T14:19:31.312Z,47.60
2018-08-20T14:21:59.749Z,45.60
2018-08-20T14:24:28.918Z,45.90
2018-08-20T14:26:57.651Z,45.60
2018-08-20T14:29:26.335Z,46.80
2018-08-20T14:31:54.930Z,46.90
2018-08-20T14:34:23.358Z,46.20
2018-08-20T14:36:52.364Z,47.60
2018-08-20T14:39:21.251Z,47.20
2018-08-20T14:41:50.632Z,46.40
2018-08-20T14:44:19.369Z,46.40
2018-08-20T14:46:47.760Z,46.20
2018-08-20T14:49:16.232Z,45.40
2018-08-20T14:51:45.312Z,46.70
2018-08-20T14:54:13.937Z,47.10
2018-08-20T14:56:42.603Z,46.90
2018-08-20T14:59:11.189Z,47.90
2018-08-20T15:01:40.355Z,47.30
2018-08-20T15:04:09.205Z,46.30
2018-08-20T15:07:01.916Z,47.70
2018-08-20T15:09:31.100Z,47.00
2018-08-20T15:12:00.370Z,47.50
2018-08-20T15:14:30.152Z,46.00
2018-08-20T15:16:59.108Z,47.50
2018-08-20T15:19:27.903Z,48.80
2018-08-20T15:21:56.401Z,47.70
2018-08-20T15:24:25.754Z,47.80
2018-08-20T15:26:54.574Z,46.80
2018-08-20T15:29:23.394Z,48.40
2018-08-20T15:31:51.911Z,48.20
2018-08-20T15:34:20.544Z,47.50
2018-08-20T15:36:49.223Z,48.30
2018-08-20T15:39:18.056Z,47.90
2018-08-20T15:41:46.491Z,49.10
2018-08-20T15:44:15.379Z,47.40
2018-08-20T15:46:46.249Z,47.70
2018-08-20T15:49:14.709Z,49.10
2018-08-20T15:51:43.245Z,50.30
2018-08-20T15:54:12.124Z,49.00
2018-08-20T15:56:40.993Z,49.70
2018-08-20T15:59:09.420Z,50.20
2018-08-20T16:01:38.287Z,49.80
2018-08-20T16:04:07.172Z,49.40
2018-08-20T16:06:35.638Z,51.20
2018-08-20T16:09:05.439Z,50.00
2018-08-20T16:11:34.966Z,48.90
2018-08-20T16:14:03.810Z,49.20
2018-08-20T16:16:32.466Z,49.50
2018-08-20T16:19:01.765Z,50.70
2018-08-20T16:21:30.353Z,50.30
2018-08-20T16:23:58.819Z,50.30
2018-08-20T16:26:27.431Z,51.70
2018-08-20T16:28:56.238Z,50.50
2018-08-20T16:31:25.291Z,51.40
2018-08-20T16:33:53.979Z,52.10
2018-08-20T16:36:22.422Z,51.40
2018-08-20T16:38:51.539Z,51.00
2018-08-20T16:41:20.784Z,51.90
2018-08-20T16:43:49.265Z,52.70
2018-08-20T16:46:18.612Z,53.00
2018-08-20T16:48:47.906Z,52.80
2018-08-20T16:51:16.699Z,52.40
2018-08-20T16:53:45.619Z,52.50
2018-08-20T16:56:14.886Z,53.80
2018-08-20T16:58:43.513Z,53.60
2018-08-20T17:01:18.441Z,53.70
2018-08-20T17:03:46.970Z,53.80
2018-08-20T17:06:16.500Z,54.00
2018-08-20T17:08:45.603Z,54.60
2018-08-20T17:11:14.655Z,54.00
2018-08-20T17:13:44.317Z,53.80
2018-08-20T17:16:14.310Z,55.50
2018-08-20T17:18:43.724Z,54.80
2018-08-20T17:21:13.485Z,54.10
2018-08-20T17:23:42.164Z,54.30
2018-08-20T17:26:10.854Z,54.90
2018-08-20T17:28:39.541Z,55.30
2018-08-20T17:31:11.892Z,57.00
2018-08-20T17:33:40.359Z,56.30
2018-08-20T17:36:09.064Z,56.00
2018-08-20T17:38:40.988Z,57.70
2018-08-20T17:41:09.878Z,58.50
2018-08-20T17:43:38.360Z,58.20
2018-08-20T17:46:07.197Z,58.70
2018-08-20T17:48:35.916Z,59.70
2018-08-20T17:51:04.507Z,60.40
2018-08-20T17:53:44.483Z,59.70
2018-08-20T17:56:13.351Z,60.90
2018-08-20T17:58:43.576Z,61.40
2018-08-20T18:01:12.435Z,60.80
2018-08-20T18:03:43.664Z,61.30
2018-08-20T18:06:12.452Z,62.20
2018-08-20T18:08:42.013Z,61.90
2018-08-20T18:11:11.507Z,61.40
2018-08-20T18:13:45.537Z,62.30
2018-08-20T18:16:16.409Z,62.60
2018-08-20T18:18:46.943Z,62.90
2018-08-20T18:21:16.481Z,63.50
2018-08-20T18:23:45.876Z,65.70
2018-08-20T18:26:15.012Z,65.20
2018-08-20T18:28:48.725Z,64.60
2018-08-20T18:31:22.335Z,65.10
2018-08-20T18:33:50.788Z,65.20
2018-08-20T18:36:22.690Z,65.00
2018-08-20T18:38:59.620Z,65.00
2018-08-20T18:42:20.738Z,66.20
2018-08-20T18:44:50.102Z,67.10
2018-08-20T18:47:19.204Z,69.00
2018-08-20T18:49:54.476Z,71.60
2018-08-20T18:52:24.113Z,73.00
2018-08-20T18:54:53.958Z,75.20
2018-08-20T18:57:24.293Z,76.30
2018-08-20T18:59:53.427Z,77.20
2018-08-20T19:02:37.955Z,77.20
2018-08-20T19:05:10.293Z,78.80
2018-08-20T19:07:39.091Z,80.10
2018-08-20T19:10:39.965Z,81.70
2018-08-20T19:13:08.645Z,85.00
2018-08-20T19:15:39.179Z,85.70
2018-08-20T19:18:10.355Z,89.10
2018-08-20T19:20:39.797Z,90.10
2018-08-20T19:23:08.679Z,90.40
2018-08-20T19:25:38.672Z,92.20
2018-08-20T19:28:12.708Z,93.10
2018-08-20T19:30:42.562Z,93.00
2018-08-20T19:33:16.398Z,93.80
2018-08-20T19:35:45.988Z,94.50
2018-08-20T19:38:14.514Z,96.30
2018-08-20T19:40:43.190Z,98.00
2018-08-20T19:43:11.641Z,98.90
2018-08-20T19:45:44.220Z,98.70
2018-08-20T19:48:13.754Z,98.60
2018-08-20T19:50:42.599Z,99.30
2018-08-20T19:53:15.810Z,99.90
2018-08-20T19:55:44.950Z,99.90
2018-08-20T19:58:21.010Z,99.90
2018-08-20T20:01:26.261Z,99.90
2018-08-20T20:03:56.229Z,99.90
2018-08-20T20:06:24.689Z,99.90
2018-08-20T20:08:53.542Z,99.90
2018-08-20T20:11:28.407Z,99.90
2018-08-20T20:14:02.371Z,99.90
2018-08-20T20:16:39.739Z,99.90
2018-08-20T20:19:09.552Z,99.90
2018-08-20T20:21:39.265Z,99.90
2018-08-20T20:24:09.030Z,99.90
2018-08-20T20:26:37.905Z,99.90
2018-08-20T20:29:11.755Z,99.90
2018-08-20T20:31:41.428Z,99.90
2018-08-20T20:34:10.388Z,99.90
2018-08-20T20:36:39.883Z,99.90
2018-08-20T20:39:14.160Z,99.90
2018-08-20T20:41:43.559Z,99.90
2018-08-20T20:44:13.371Z,99.90
2018-08-20T20:46:42.601Z,99.90
2018-08-20T20:49:11.848Z,99.90
2018-08-20T20:51:42.820Z,99.90
2018-08-20T20:54:12.372Z,99.90
2018-08-20T20:56:40.932Z,99.90
2018-08-20T20:59:09.881Z,99.90
2018-08-20T21:01:38.365Z,99.90
2018-08-20T21:04:08.459Z,99.90
2018-08-20T21:06:39.248Z,99.90
2018-08-20T21:09:09.612Z,99.90
2018-08-20T21:11:39.432Z,99.90
2018-08-20T21:14:08.457Z,99.90
2018-08-20T21:16:37.075Z,99.90
2018-08-20T21:19:06.197Z,99.90
2018-08-20T21:21:34.860Z,99.90
2018-08-20T21:24:06.411Z,99.90
2018-08-20T21:26:35.265Z,99.90
2018-08-20T21:29:04.371Z,99.90
2018-08-20T21:31:37.769Z,99.90
2018-08-20T21:34:07.341Z,99.90
2018-08-20T21:36:35.860Z,99.90
2018-08-20T21:39:07.099Z,99.90
2018-08-20T21:41:36.166Z,99.90
2018-08-20T21:44:05.217Z,99.90
2018-08-20T21:46:33.922Z,99.90
2018-08-20T21:49:03.434Z,99.90
2018-08-20T21:51:37.495Z,99.90
